Lee Hall, Virginia
Current Conditions -  °F | °C
As of 8:58 AM on Thursday 23 Oct 2014 (Local Time) from KFAF Reporting Station
Overcast Overcast  
Wind Chill: 54°   Ceiling: 4500
Heat Index: 54°   Visibility: 10mi
Dew Point: 41°   Wind: 18mph
Humidity: 62%   Direction: 310°NW
Pressure: 29.9"   Gusts: 25mph
Location:  37.1935°N, 76.5695°W
Report Text: KFAF 231258Z AUTO 31016G22KT 10SM BKN045 OVC065 12/05 A2990 RMK AO2 PK WND 32026/07 SLP128 T01220052 $
Loading
Personal Weather Stations






























Interactive Weather Map
Tropical Storm Tracking
New forecast layout! Learn more

10-Day Weather Forecast

Advertisements
Track Severe Weather on mobile